Time;durP1;ratioP1;P1;durP2;ratioP2;P2;SDS_P1;SDS_P2;PMS_P1;PMS_P2;Temp;Humidity;BMP_temperature;BMP_pressure;BME280_temperature;BME280_humidity;BME280_pressure;Samples;Min_cycle;Max_cycle;Signal;HPM_P1;HPM_P2
2021/08/14 00:01:52;;;;;;;30.25;9.43;;;;;;;17.45;80.01;102144.53;4961173;29;20039;-84
2021/08/14 00:04:20;;;;;;;29.60;9.27;;;;;;;17.46;80.26;102142.72;4977942;29;20026;-84
2021/08/14 00:06:47;;;;;;;20.85;8.27;;;;;;;17.62;79.35;102142.63;4958989;29;20072;-84
2021/08/14 00:09:13;;;;;;;28.63;7.45;;;;;;;17.66;79.13;102136.13;4978348;29;20050;-84
2021/08/14 00:11:40;;;;;;;25.35;7.55;;;;;;;17.67;79.29;102146.72;4961102;29;20058;-83
2021/08/14 00:14:05;;;;;;;28.92;7.80;;;;;;;17.67;79.16;102149.41;4977540;28;20019;-84
2021/08/14 00:16:32;;;;;;;26.77;7.65;;;;;;;17.70;79.07;102140.31;4976873;29;20099;-83
2021/08/14 00:18:58;;;;;;;26.77;7.68;;;;;;;17.61;79.24;102147.13;4977273;29;20049;-84
2021/08/14 00:21:24;;;;;;;27.65;8.52;;;;;;;17.68;79.09;102142.25;4978195;29;20031;-84
2021/08/14 00:23:49;;;;;;;23.48;8.10;;;;;;;17.70;79.17;102139.47;4978607;28;20034;-83
2021/08/14 00:26:14;;;;;;;32.10;8.20;;;;;;;17.33;80.53;102137.25;4978153;28;20036;-84
2021/08/14 00:28:41;;;;;;;28.75;7.82;;;;;;;17.63;79.37;102139.88;4978067;28;20027;-83
2021/08/14 00:31:08;;;;;;;27.00;7.97;;;;;;;17.75;78.98;102142.72;4960287;29;20087;-84
2021/08/14 00:36:11;;;;;;;25.58;7.80;;;;;;;17.61;79.81;102139.09;4919956;29;20070;-84
2021/08/14 00:38:36;;;;;;;29.75;8.10;;;;;;;17.65;79.76;102137.09;4921303;29;20060;-82
2021/08/14 00:41:03;;;;;;;25.25;7.35;;;;;;;17.75;79.49;102132.00;4921198;29;20039;-83
2021/08/14 00:43:29;;;;;;;26.83;7.57;;;;;;;17.79;79.34;102131.72;4921592;29;20039;-82
2021/08/14 00:45:57;;;;;;;27.73;7.93;;;;;;;17.77;79.57;102127.44;4921093;29;20464;-84
2021/08/14 00:48:23;;;;;;;21.48;6.80;;;;;;;17.83;79.09;102123.50;4921350;29;20055;-83
2021/08/14 00:50:48;;;;;;;27.55;8.27;;;;;;;17.85;79.47;102126.94;4904468;29;20032;-83
2021/08/14 00:53:14;;;;;;;27.23;7.50;;;;;;;17.88;79.27;102110.69;4921077;29;20032;-82
2021/08/14 00:55:55;;;;;;;25.60;7.78;;;;;;;17.88;79.21;102113.38;4903771;29;20421;-83
2021/08/14 00:58:23;;;;;;;25.33;8.25;;;;;;;17.90;79.17;102108.78;4903981;29;20487;-82
2021/08/14 01:00:48;;;;;;;25.98;8.10;;;;;;;17.89;79.17;102123.97;4903364;29;20036;-83
2021/08/14 01:03:14;;;;;;;29.23;8.15;;;;;;;17.92;79.21;102114.88;4888494;29;20036;-83
2021/08/14 01:05:41;;;;;;;19.83;7.50;;;;;;;17.91;79.36;102106.00;4873378;29;20103;-83
2021/08/14 01:08:08;;;;;;;25.27;7.75;;;;;;;17.92;79.59;102112.19;4888561;29;20032;-83
2021/08/14 01:10:35;;;;;;;27.92;8.30;;;;;;;17.84;80.02;102122.56;4920756;29;20475;-82
2021/08/14 01:13:01;;;;;;;25.20;7.50;;;;;;;17.90;79.80;102111.47;4920932;29;20115;-83
2021/08/14 01:15:28;;;;;;;28.08;7.65;;;;;;;17.92;79.83;102109.53;4904042;29;20099;-83
2021/08/14 01:17:53;;;;;;;26.83;7.47;;;;;;;17.88;80.43;102110.69;4873233;29;20068;-83
2021/08/14 01:20:18;;;;;;;30.83;7.97;;;;;;;17.84;80.68;102107.34;4891953;29;20087;-83
2021/08/14 01:22:45;;;;;;;29.10;8.70;;;;;;;17.93;80.40;102112.09;4920462;29;20036;-83
2021/08/14 01:25:13;;;;;;;27.83;7.47;;;;;;;17.98;80.31;102113.63;4924635;29;20514;-83
2021/08/14 01:27:39;;;;;;;28.73;7.85;;;;;;;17.99;80.49;102105.50;4907100;29;20028;-83
2021/08/14 01:30:06;;;;;;;27.58;7.20;;;;;;;17.97;80.89;102110.09;4924504;29;20036;-83
2021/08/14 01:32:33;;;;;;;23.48;7.10;;;;;;;17.99;80.79;102097.47;4924721;29;20035;-83
2021/08/14 01:34:59;;;;;;;20.65;7.43;;;;;;;18.00;80.58;102095.66;4924217;29;20060;-83
2021/08/14 01:37:28;;;;;;;30.13;7.47;;;;;;;18.11;80.35;102094.94;4907293;29;20036;-83
2021/08/14 01:39:54;;;;;;;28.90;7.97;;;;;;;18.09;80.24;102100.41;4924499;29;20024;-83
2021/08/14 01:42:20;;;;;;;23.70;7.38;;;;;;;18.13;80.62;102099.28;4907281;29;20365;-82
2021/08/14 01:44:46;;;;;;;21.77;7.13;;;;;;;18.15;80.48;102094.69;4907557;29;20080;-83
2021/08/14 01:47:11;;;;;;;28.83;7.45;;;;;;;18.17;80.19;102094.56;4907067;29;20032;-83
2021/08/14 01:49:40;;;;;;;30.13;7.60;;;;;;;18.22;80.07;102089.78;4907069;29;20128;-83
2021/08/14 01:52:14;;;;;;;24.92;6.90;;;;;;;18.01;80.89;102095.53;4891340;29;20040;-83
2021/08/14 01:54:41;;;;;;;22.73;7.47;;;;;;;18.18;80.31;102089.13;4907387;29;20036;-84
2021/08/14 01:57:09;;;;;;;29.15;7.65;;;;;;;18.26;80.15;102087.78;4924197;29;20031;-83
2021/08/14 01:59:35;;;;;;;27.73;8.13;;;;;;;18.34;79.68;102085.44;4906959;29;20060;-83
2021/08/14 02:02:01;;;;;;;29.35;7.43;;;;;;;18.32;79.66;102084.69;4923662;29;20510;-83
2021/08/14 02:04:27;;;;;;;25.02;7.63;;;;;;;18.27;80.00;102087.66;4922878;29;20123;-83
2021/08/14 02:06:53;;;;;;;25.80;7.35;;;;;;;18.37;79.38;102087.06;4923821;29;20127;-84
2021/08/14 02:09:20;;;;;;;28.55;7.45;;;;;;;18.23;80.15;102085.31;4922854;29;20032;-84
2021/08/14 02:11:45;;;;;;;31.35;8.07;;;;;;;18.30;79.93;102086.59;4924039;29;20039;-84
2021/08/14 02:14:11;;;;;;;32.40;7.68;;;;;;;18.24;80.22;102087.00;4924017;29;20395;-84
2021/08/14 02:16:36;;;;;;;26.30;7.57;;;;;;;18.30;79.99;102083.94;4875508;29;20036;-84
2021/08/14 02:19:02;;;;;;;28.70;7.78;;;;;;;18.39;79.59;102077.09;4922859;29;20095;-84
2021/08/14 02:21:27;;;;;;;29.77;7.55;;;;;;;18.35;79.71;102081.81;4921983;29;20079;-84
2021/08/14 02:23:53;;;;;;;27.15;9.07;;;;;;;18.24;80.05;102078.97;4922910;29;20142;-84
2021/08/14 02:26:19;;;;;;;28.92;8.23;;;;;;;18.38;79.62;102075.38;4906242;29;20032;-84
2021/08/14 02:28:44;;;;;;;28.17;8.32;;;;;;;18.43;79.57;102083.97;4906137;29;20044;-84
2021/08/14 02:31:10;;;;;;;29.35;7.80;;;;;;;18.39;79.74;102077.09;4923372;29;20467;-83
2021/08/14 02:33:35;;;;;;;32.75;7.63;;;;;;;18.41;79.32;102075.16;4889924;29;20044;-83
2021/08/14 02:36:04;;;;;;;27.67;8.25;;;;;;;18.29;79.60;102083.06;4922211;29;20403;-83
2021/08/14 02:38:30;;;;;;;29.40;8.77;;;;;;;18.30;79.34;102073.22;4923053;29;20550;-83
2021/08/14 02:40:56;;;;;;;23.63;8.07;;;;;;;18.20;80.02;102072.13;4906335;29;20028;-83
2021/08/14 02:43:23;;;;;;;25.13;8.60;;;;;;;18.22;79.67;102076.41;4921861;29;20078;-83
2021/08/14 02:45:48;;;;;;;25.70;8.85;;;;;;;18.22;79.97;102073.72;4906407;29;20040;-83
2021/08/14 02:48:14;;;;;;;29.75;8.43;;;;;;;18.22;79.97;102075.53;4905537;29;20036;-83
2021/08/14 02:50:44;;;;;;;23.13;7.75;;;;;;;18.17;80.39;102073.16;4890310;29;20083;-84
2021/08/14 02:53:10;;;;;;;23.75;8.02;;;;;;;18.16;80.83;102077.69;4890383;29;20392;-84
2021/08/14 02:55:39;;;;;;;37.75;9.00;;;;;;;18.14;81.05;102070.69;4922843;29;20036;-84
2021/08/14 02:58:04;;;;;;;33.38;8.57;;;;;;;18.09;80.88;102070.13;4905670;29;20119;-84
2021/08/14 03:00:33;;;;;;;29.88;8.43;;;;;;;18.17;80.50;102063.31;4890552;29;20047;-83
2021/08/14 03:02:59;;;;;;;32.88;8.98;;;;;;;18.15;80.58;102067.91;4905899;29;20044;-84
2021/08/14 03:05:24;;;;;;;31.10;9.02;;;;;;;18.12;80.51;102062.75;4903442;29;20420;-84
2021/08/14 03:07:50;;;;;;;28.98;8.35;;;;;;;18.06;80.82;102058.66;4920559;29;20417;-84
2021/08/14 03:10:15;;;;;;;25.27;8.10;;;;;;;18.05;80.86;102064.97;4920186;29;20357;-84
2021/08/14 03:12:41;;;;;;;30.88;8.15;;;;;;;18.03;80.80;102064.19;4920210;29;20124;-84
2021/08/14 03:15:07;;;;;;;29.02;9.02;;;;;;;17.99;80.89;102065.38;4919986;29;20036;-84
2021/08/14 03:17:32;;;;;;;31.30;8.57;;;;;;;17.91;81.20;102063.19;4902417;29;20040;-84
2021/08/14 03:20:00;;;;;;;28.42;8.48;;;;;;;17.98;80.99;102066.31;4887281;29;20390;-84
2021/08/14 03:22:26;;;;;;;27.27;8.60;;;;;;;17.88;81.05;102070.56;4920147;29;20079;-84
2021/08/14 03:24:51;;;;;;;30.33;8.63;;;;;;;18.00;80.63;102059.06;4902462;29;20399;-84
2021/08/14 03:27:17;;;;;;;29.17;8.65;;;;;;;17.93;80.42;102060.41;4903333;29;20087;-84
2021/08/14 03:29:42;;;;;;;24.00;8.00;;;;;;;17.85;80.57;102057.38;4919886;29;20107;-83
2021/08/14 03:32:08;;;;;;;24.35;8.35;;;;;;;17.77;80.48;102058.75;4903017;29;20035;-83
2021/08/14 03:34:33;;;;;;;25.80;8.63;;;;;;;17.68;80.93;102056.66;4919824;29;20103;-83
2021/08/14 03:36:59;;;;;;;23.88;8.90;;;;;;;17.60;80.98;102053.59;4919530;29;20542;-83
2021/08/14 03:39:26;;;;;;;30.63;9.18;;;;;;;17.48;81.35;102056.09;4902781;29;20064;-83
2021/08/14 03:41:51;;;;;;;38.22;10.05;;;;;;;17.41;81.70;102061.00;4918928;29;20118;-83
2021/08/14 03:44:17;;;;;;;32.88;10.07;;;;;;;17.30;81.80;102045.59;4919479;29;20047;-84
2021/08/14 03:46:42;;;;;;;34.88;9.63;;;;;;;17.27;81.86;102052.97;4918424;29;20032;-83
2021/08/14 03:49:07;;;;;;;27.60;9.32;;;;;;;17.24;81.91;102056.66;4919466;29;20020;-83
2021/08/14 03:51:33;;;;;;;29.92;9.50;;;;;;;17.08;82.61;102056.78;4919257;29;20032;-83
2021/08/14 03:53:58;;;;;;;28.33;8.85;;;;;;;17.14;82.16;102056.41;4919234;29;20028;-83
2021/08/14 03:56:24;;;;;;;37.78;9.50;;;;;;;17.10;82.15;102046.84;4919128;29;20028;-83
2021/08/14 03:58:50;;;;;;;36.38;9.50;;;;;;;16.96;82.69;102045.00;4919493;29;20040;-83
2021/08/14 04:01:16;;;;;;;36.92;9.82;;;;;;;16.98;82.68;102042.22;4919326;29;20035;-84
2021/08/14 04:03:41;;;;;;;31.25;9.95;;;;;;;16.93;82.94;102043.38;4902396;29;20028;-84
2021/08/14 04:06:07;;;;;;;33.53;10.25;;;;;;;16.92;82.88;102047.00;4902706;29;20060;-84
2021/08/14 04:08:32;;;;;;;30.13;9.60;;;;;;;16.90;82.60;102043.56;4919171;29;20099;-84
2021/08/14 04:10:57;;;;;;;31.27;10.38;;;;;;;16.85;82.75;102034.13;4901950;29;20039;-84
2021/08/14 04:13:24;;;;;;;34.22;9.82;;;;;;;16.84;82.65;102033.25;4919159;29;20032;-84
2021/08/14 04:15:50;;;;;;;32.13;9.93;;;;;;;16.83;82.62;102047.56;4902119;29;20111;-83
2021/08/14 04:18:15;;;;;;;26.85;9.80;;;;;;;16.77;82.96;102039.94;4918470;29;20040;-83
2021/08/14 04:20:41;;;;;;;41.45;11.20;;;;;;;16.74;83.40;102045.47;4918853;29;20036;-84
2021/08/14 04:23:06;;;;;;;43.00;10.82;;;;;;;16.75;83.18;102045.38;4919156;29;20024;-83
2021/08/14 04:25:32;;;;;;;35.72;12.52;;;;;;;16.73;83.27;102043.72;4917907;29;20033;-84
2021/08/14 04:27:57;;;;;;;41.65;11.10;;;;;;;16.68;83.88;102049.34;4919026;29;20120;-83
2021/08/14 04:30:23;;;;;;;38.83;12.02;;;;;;;16.74;83.43;102048.13;4919065;29;20028;-85
2021/08/14 04:32:50;;;;;;;42.85;12.32;;;;;;;16.68;83.85;102042.19;4902143;29;20481;-85
2021/08/14 04:35:16;;;;;;;38.42;12.38;;;;;;;16.70;83.67;102039.44;4961209;23;20058;-85
2021/08/14 04:37:42;;;;;;;40.58;11.77;;;;;;;16.78;83.46;102047.84;4959062;28;20038;-85
2021/08/14 04:40:09;;;;;;;34.58;11.82;;;;;;;16.78;83.57;102042.50;4973736;28;20409;-83
2021/08/14 04:42:35;;;;;;;50.80;12.88;;;;;;;16.80;83.68;102048.59;4977655;28;20046;-84
2021/08/14 04:45:00;;;;;;;39.50;11.88;;;;;;;16.91;83.38;102039.09;4980137;28;20429;-83
2021/08/14 04:47:26;;;;;;;40.97;12.02;;;;;;;16.90;83.48;102042.69;4961601;28;20042;-82
2021/08/14 04:49:51;;;;;;;39.75;12.13;;;;;;;16.99;83.40;102041.28;4979880;28;20027;-82
2021/08/14 04:52:18;;;;;;;46.00;12.75;;;;;;;17.02;82.94;102043.78;4980574;28;20030;-82
2021/08/14 04:54:44;;;;;;;41.30;11.82;;;;;;;17.16;82.78;102042.94;4982669;28;20026;-84
2021/08/14 04:57:09;;;;;;;35.30;12.45;;;;;;;17.16;82.91;102042.94;4981161;28;20416;-83
2021/08/14 04:59:34;;;;;;;36.05;12.63;;;;;;;17.29;82.64;102043.88;4980442;28;20046;-85
2021/08/14 05:02:02;;;;;;;30.48;10.70;;;;;;;17.42;81.93;102051.13;4981577;28;20030;-83
2021/08/14 05:04:27;;;;;;;34.53;11.32;;;;;;;17.58;81.50;102042.13;4964231;28;20121;-83
2021/08/14 05:06:53;;;;;;;33.70;10.45;;;;;;;17.59;81.45;102035.84;4983501;28;20115;-83
2021/08/14 05:09:19;;;;;;;33.45;10.57;;;;;;;17.67;81.36;102038.88;4982570;28;20039;-84
2021/08/14 05:11:47;;;;;;;27.48;10.30;;;;;;;17.70;80.97;102040.50;4985249;28;20102;-83
2021/08/14 05:14:12;;;;;;;32.28;10.68;;;;;;;17.70;81.39;102038.69;4968218;28;20405;-83
2021/08/14 05:16:38;;;;;;;27.48;9.75;;;;;;;17.86;80.41;102038.53;4967687;28;20027;-83
2021/08/14 05:19:04;;;;;;;26.85;9.27;;;;;;;18.04;79.59;102038.31;4967164;28;20031;-84
2021/08/14 05:21:29;;;;;;;30.65;9.65;;;;;;;18.16;79.37;102044.69;4967513;28;20150;-83
2021/08/14 05:23:55;;;;;;;29.63;9.35;;;;;;;18.24;78.87;102036.16;4950946;28;20066;-84
2021/08/14 05:26:22;;;;;;;25.95;8.95;;;;;;;18.29;78.90;102044.72;4983600;28;20065;-83
2021/08/14 05:28:48;;;;;;;24.27;8.93;;;;;;;18.34;78.90;102044.44;4983752;28;20093;-84
2021/08/14 05:31:13;;;;;;;27.17;9.05;;;;;;;18.23;78.97;102043.31;4967585;28;20034;-83
2021/08/14 05:33:39;;;;;;;23.48;9.13;;;;;;;18.41;78.51;102045.72;4984770;28;20045;-84
2021/08/14 05:36:08;;;;;;;35.65;9.77;;;;;;;18.27;78.63;102055.53;4985556;28;20045;-84
2021/08/14 05:38:34;;;;;;;30.65;9.35;;;;;;;18.25;78.69;102048.56;4969599;28;20026;-85
2021/08/14 05:41:03;;;;;;;28.95;9.32;;;;;;;18.18;79.02;102048.97;4984506;28;20557;-85
2021/08/14 05:43:29;;;;;;;26.52;9.70;;;;;;;18.00;79.75;102058.19;4983297;28;20506;-84
2021/08/14 05:45:54;;;;;;;28.05;9.55;;;;;;;17.83;79.92;102062.81;4984464;28;20030;-85
2021/08/14 05:48:21;;;;;;;33.60;10.80;;;;;;;17.86;80.42;102064.44;4984403;28;20061;-83
2021/08/14 05:50:47;;;;;;;26.88;9.63;;;;;;;17.90;80.10;102063.28;4986201;28;20074;-84
2021/08/14 05:53:13;;;;;;;32.45;9.55;;;;;;;18.07;79.58;102056.84;4969116;28;20062;-84
2021/08/14 05:55:40;;;;;;;30.30;8.90;;;;;;;18.20;79.51;102058.72;4987739;28;20023;-83
2021/08/14 05:58:07;;;;;;;29.85;8.95;;;;;;;18.27;78.98;102058.22;4971805;28;20070;-84
2021/08/14 06:00:33;;;;;;;21.95;8.95;;;;;;;18.48;78.35;102049.69;4968715;28;20498;-84
2021/08/14 06:02:59;;;;;;;26.85;8.50;;;;;;;18.60;78.11;102048.00;4984085;28;20027;-84
2021/08/14 06:05:25;;;;;;;28.60;9.35;;;;;;;18.51;78.08;102040.59;4981041;28;20031;-84
2021/08/14 06:07:56;;;;;;;23.63;8.93;;;;;;;18.68;77.41;102047.47;4964998;28;20113;-84
2021/08/14 06:10:21;;;;;;;28.80;9.73;;;;;;;18.48;78.16;102062.25;4982049;28;20045;-84
2021/08/14 06:12:47;;;;;;;30.73;10.60;;;;;;;18.68;77.74;102053.72;4981944;28;20405;-85
2021/08/14 06:15:12;;;;;;;27.25;10.13;;;;;;;18.86;77.09;102060.59;4981666;28;20109;-84
2021/08/14 06:17:39;;;;;;;25.15;9.30;;;;;;;19.01;77.07;102051.47;4981777;28;20047;-84
2021/08/14 06:20:10;;;;;;;29.75;9.05;;;;;;;19.03;76.82;102046.84;4981592;28;20023;-85
2021/08/14 06:22:37;;;;;;;29.90;9.10;;;;;;;18.92;77.34;102049.44;4964873;28;20027;-84
2021/08/14 06:25:03;;;;;;;29.08;8.02;;;;;;;18.86;77.05;102056.06;4981157;28;20126;-85
2021/08/14 06:27:30;;;;;;;27.20;8.25;;;;;;;18.71;77.82;102054.44;4980802;28;20607;-84
2021/08/14 06:29:55;;;;;;;30.05;8.52;;;;;;;18.77;77.72;102056.69;4980707;28;20042;-85
2021/08/14 06:32:20;;;;;;;23.98;7.38;;;;;;;19.13;76.61;102044.41;4980713;28;20051;-84
2021/08/14 06:34:47;;;;;;;31.15;8.55;;;;;;;19.26;75.86;102054.25;4981141;28;20057;-85
2021/08/14 06:37:13;;;;;;;24.25;7.65;;;;;;;19.46;75.30;102058.19;4981652;28;20039;-84
2021/08/14 06:39:39;;;;;;;27.05;7.95;;;;;;;19.57;75.35;102068.16;4964488;28;20038;-83
2021/08/14 06:42:06;;;;;;;22.33;7.25;;;;;;;19.95;73.84;102071.69;4980937;28;20027;-82
2021/08/14 06:44:34;;;;;;;25.33;6.90;;;;;;;20.28;72.52;102078.25;4981253;28;20050;-83
2021/08/14 06:47:02;;;;;;;22.15;6.50;;;;;;;20.21;72.14;102076.13;4981503;28;20039;-84
2021/08/14 06:49:27;;;;;;;20.58;6.10;;;;;;;20.22;71.80;102067.97;4980991;28;20023;-82
2021/08/14 06:51:54;;;;;;;24.85;6.40;;;;;;;20.36;71.86;102074.97;4981068;28;20033;-85
2021/08/14 06:54:19;;;;;;;21.13;6.65;;;;;;;20.55;71.03;102068.22;4981067;28;20358;-84
2021/08/14 06:56:48;;;;;;;18.27;5.90;;;;;;;20.57;70.33;102074.31;4979191;28;20414;-83
2021/08/14 06:59:16;;;;;;;23.05;5.70;;;;;;;20.58;70.19;102065.28;4980388;28;20039;-83
2021/08/14 07:01:41;;;;;;;21.08;6.70;;;;;;;20.55;70.58;102073.59;4963211;28;20030;-82
2021/08/14 07:04:07;;;;;;;22.65;5.85;;;;;;;20.64;69.70;102080.94;4962359;28;20104;-85
2021/08/14 07:06:33;;;;;;;17.60;5.30;;;;;;;20.78;69.12;102073.63;4980354;28;20035;-84
2021/08/14 07:08:59;;;;;;;21.40;6.07;;;;;;;21.09;68.11;102073.09;4980705;28;20035;-83
2021/08/14 07:11:24;;;;;;;18.77;6.68;;;;;;;20.51;69.13;102078.31;4963680;28;20026;-85
2021/08/14 07:13:51;;;;;;;18.80;5.68;;;;;;;20.93;68.15;102070.75;4980392;28;20041;-85
2021/08/14 07:16:17;;;;;;;18.77;5.80;;;;;;;20.82;67.42;102068.88;4980098;28;20047;-84
2021/08/14 07:18:43;;;;;;;16.85;5.20;;;;;;;20.40;68.06;102064.84;4978551;28;20047;-84
2021/08/14 07:21:08;;;;;;;15.15;5.40;;;;;;;20.37;68.73;102052.50;4979746;28;20074;-83
2021/08/14 07:23:35;;;;;;;18.13;5.45;;;;;;;20.51;67.50;102064.03;4962438;28;20046;-84
2021/08/14 07:26:04;;;;;;;15.10;5.15;;;;;;;20.90;65.81;102061.91;4980238;28;20070;-83
2021/08/14 07:28:29;;;;;;;22.40;5.95;;;;;;;21.32;64.43;102068.56;4979721;28;20030;-83
2021/08/14 07:30:56;;;;;;;18.88;5.43;;;;;;;21.15;65.09;102080.66;4978387;28;20101;-83
2021/08/14 07:33:25;;;;;;;21.17;5.43;;;;;;;21.29;65.12;102079.56;4979083;28;20034;-83
2021/08/14 07:35:51;;;;;;;20.83;5.50;;;;;;;21.30;65.14;102065.16;4977932;28;20050;-83
2021/08/14 07:38:16;;;;;;;18.05;5.80;;;;;;;20.79;66.57;102069.97;4977954;28;20049;-84
2021/08/14 07:40:45;;;;;;;14.15;4.78;;;;;;;21.02;66.36;102076.25;4978868;28;20090;-84
2021/08/14 07:43:10;;;;;;;16.98;5.50;;;;;;;21.03;65.34;102067.22;4961946;28;20030;-84
2021/08/14 07:45:37;;;;;;;13.57;5.10;;;;;;;20.78;65.26;102076.31;4961022;28;20026;-84
2021/08/14 07:48:06;;;;;;;16.55;5.22;;;;;;;20.91;65.45;102054.75;4961896;28;20081;-84
2021/08/14 07:50:34;;;;;;;18.42;5.07;;;;;;;20.85;65.44;102050.66;4961599;28;20397;-83
2021/08/14 07:53:03;;;;;;;18.45;5.10;;;;;;;20.95;65.59;102060.72;4945279;28;20027;-85
2021/08/14 07:55:29;;;;;;;14.15;5.43;;;;;;;21.20;64.31;102072.22;4961351;28;20026;-84
2021/08/14 07:57:56;;;;;;;16.63;6.82;;;;;;;20.72;66.15;102066.03;4960715;28;20042;-83
2021/08/14 08:00:24;;;;;;;15.40;5.35;;;;;;;20.86;65.26;102073.91;4958741;28;20375;-84
2021/08/14 08:02:50;;;;;;;20.23;5.32;;;;;;;20.87;65.17;102072.03;4978274;28;20089;-83
2021/08/14 08:05:17;;;;;;;15.23;5.18;;;;;;;20.99;64.80;102063.06;4978376;28;20034;-83
2021/08/14 08:07:44;;;;;;;17.65;5.35;;;;;;;20.86;64.46;102073.91;4961722;28;20069;-83
2021/08/14 08:10:15;;;;;;;16.38;5.10;;;;;;;20.61;66.24;102077.63;4978270;28;20035;-83
2021/08/14 08:12:40;;;;;;;17.55;5.55;;;;;;;20.66;65.68;102072.75;4961277;28;20133;-83
2021/08/14 08:15:09;;;;;;;20.75;5.53;;;;;;;20.99;65.16;102068.44;4959996;28;20486;-82
2021/08/14 08:17:36;;;;;;;15.73;4.82;;;;;;;20.77;65.20;102072.75;4961154;28;20073;-84
2021/08/14 08:20:03;;;;;;;19.08;5.60;;;;;;;21.14;64.74;102057.44;4944914;28;20405;-83
2021/08/14 08:22:30;;;;;;;16.00;5.50;;;;;;;21.18;64.25;102050.84;4945002;28;20039;-84
2021/08/14 08:24:56;;;;;;;18.00;4.93;;;;;;;21.59;62.27;102053.88;4976173;28;20045;-82
2021/08/14 08:27:23;;;;;;;19.05;5.10;;;;;;;21.49;63.32;102053.78;4979486;28;20039;-83
2021/08/14 08:29:49;;;;;;;21.08;6.22;;;;;;;21.36;63.15;102050.34;4951457;28;20036;-82
2021/08/14 08:32:15;;;;;;;12.55;4.68;;;;;;;21.63;62.57;102057.19;4966118;28;20018;-83
2021/08/14 08:38:27;;;;;;;13.45;5.10;;;;;;;21.34;61.87;102065.78;4856318;29;20081;-82
2021/08/14 08:41:14;;;;;;;14.48;5.00;;;;;;;21.24;62.81;102073.72;4803174;29;20058;-87
2021/08/14 08:43:41;;;;;;;13.45;4.95;;;;;;;21.26;63.40;102072.59;4800748;30;20050;-86
2021/08/14 08:46:13;;;;;;;14.77;4.97;;;;;;;21.52;60.97;102076.88;4799508;30;20566;-83
2021/08/14 08:48:50;;;;;;;14.23;4.53;;;;;;;21.30;62.65;102067.84;4800334;29;20066;-84
2021/08/14 08:51:17;;;;;;;18.42;5.68;;;;;;;20.96;64.22;102065.16;4799598;30;20071;-85
2021/08/14 08:53:49;;;;;;;12.88;4.90;;;;;;;20.88;65.10;102071.09;4803685;30;20054;-84
2021/08/14 08:56:27;;;;;;;16.92;5.35;;;;;;;21.10;63.63;102074.81;4803770;30;20053;-82
2021/08/14 08:59:14;;;;;;;14.15;5.18;;;;;;;20.86;63.63;102065.84;4785498;30;20044;-84
2021/08/14 09:01:42;;;;;;;18.48;5.38;;;;;;;21.29;62.13;102066.97;4771768;30;20082;-87
2021/08/14 09:04:34;;;;;;;15.30;4.80;;;;;;;21.54;61.21;102070.38;4797808;29;20047;-91
2021/08/14 09:07:00;;;;;;;15.27;5.40;;;;;;;21.69;61.26;102077.34;4798805;30;20047;-85
2021/08/14 09:09:31;;;;;;;15.90;5.38;;;;;;;21.77;61.06;102073.09;4798906;30;20028;-87
2021/08/14 09:12:06;;;;;;;17.08;4.63;;;;;;;21.33;61.56;102082.88;4798321;30;20528;-85
2021/08/14 09:14:48;;;;;;;15.45;5.43;;;;;;;21.76;59.12;102084.81;4827970;29;20041;-87
2021/08/14 09:17:18;;;;;;;14.98;4.60;;;;;;;22.95;55.98;102080.44;4877605;29;20051;-88
2021/08/14 09:19:46;;;;;;;11.38;4.13;;;;;;;23.80;52.97;102068.53;4895506;29;20114;-87
2021/08/14 09:22:38;;;;;;;16.33;4.93;;;;;;;23.39;53.42;102074.00;4932951;29;20039;-89
2021/08/14 09:25:22;;;;;;;12.80;4.50;;;;;;;23.84;52.89;102083.47;4897053;29;20045;-86
2021/08/14 09:27:55;;;;;;;17.40;5.28;;;;;;;24.24;51.90;102073.56;4910896;29;20067;-85
2021/08/14 09:30:48;;;;;;;12.45;4.40;;;;;;;24.70;51.35;102066.69;4896751;29;20195;-84
2021/08/14 09:33:21;;;;;;;10.98;4.18;;;;;;;25.33;48.48;102081.47;4897634;29;20033;-88
2021/08/14 09:36:09;;;;;;;16.83;4.60;;;;;;;24.63;48.49;102088.06;4909961;29;20032;-87
2021/08/14 09:38:42;;;;;;;12.95;4.22;;;;;;;23.83;51.83;102070.13;4907613;29;20060;-84
2021/08/14 09:41:22;;;;;;;14.70;4.90;;;;;;;23.64;53.02;102061.81;4907063;29;20080;-84
2021/08/14 09:43:49;;;;;;;12.13;4.57;;;;;;;24.08;52.49;102067.88;4906607;29;20036;-84
2021/08/14 09:46:15;;;;;;;11.27;4.20;;;;;;;25.61;47.71;102067.09;4908931;29;20041;-83
2021/08/14 09:48:41;;;;;;;11.18;4.20;;;;;;;25.53;47.40;102058.88;4896986;29;20032;-86
2021/08/14 09:51:28;;;;;;;11.73;4.60;;;;;;;24.32;50.30;102072.88;4899869;29;20040;-84
2021/08/14 09:53:57;;;;;;;10.77;4.10;;;;;;;24.35;50.18;102080.69;4914526;29;20073;-85
2021/08/14 09:57:03;;;;;;;12.38;4.28;;;;;;;23.41;52.33;102071.97;4901187;29;20040;-84
2021/08/14 09:59:33;;;;;;;16.15;4.55;;;;;;;24.21;51.85;102067.63;4931681;29;20048;-84
2021/08/14 10:02:06;;;;;;;12.40;4.05;;;;;;;24.23;50.70;102069.19;4928062;29;20103;-83
2021/08/14 10:04:57;;;;;;;11.02;4.15;;;;;;;25.07;48.88;102062.38;4912636;29;20028;-85
2021/08/14 10:07:34;;;;;;;12.05;4.60;;;;;;;25.38;48.72;102059.38;4926487;29;20055;-82
2021/08/14 10:10:26;;;;;;;12.77;4.50;;;;;;;25.04;49.25;102071.59;4926641;29;20048;-85
2021/08/14 10:12:51;;;;;;;10.98;4.28;;;;;;;25.06;48.45;102069.63;4914922;29;20536;-84
2021/08/14 10:15:20;;;;;;;12.18;4.30;;;;;;;25.65;47.38;102071.22;4909655;29;20036;-84
2021/08/14 10:17:46;;;;;;;16.13;4.70;;;;;;;24.98;49.45;102067.66;4937568;29;20040;-84
2021/08/14 10:20:12;;;;;;;11.60;4.50;;;;;;;25.82;47.71;102068.69;4907267;29;20040;-83
2021/08/14 10:22:37;;;;;;;13.82;5.25;;;;;;;23.63;53.39;102067.34;4922231;29;20463;-87
2021/08/14 10:25:06;;;;;;;13.75;4.75;;;;;;;22.83;54.79;102068.03;4922003;29;20472;-84
2021/08/14 10:28:01;;;;;;;14.63;4.57;;;;;;;22.41;56.32;102072.38;4907192;29;20044;-86
2021/08/14 10:30:49;;;;;;;14.68;4.65;;;;;;;23.07;54.74;102075.81;4921874;29;20422;-85
2021/08/14 10:33:27;;;;;;;12.95;4.47;;;;;;;24.23;51.53;102068.31;4923731;29;20044;-85
2021/08/14 10:35:54;;;;;;;10.65;3.85;;;;;;;24.61;50.84;102068.44;4926002;29;20064;-84
2021/08/14 10:38:39;;;;;;;12.30;4.57;;;;;;;25.18;49.10;102070.28;4906772;29;20084;-85
2021/08/14 10:41:23;;;;;;;12.70;4.55;;;;;;;25.56;48.80;102074.81;4923838;29;20051;-86
2021/08/14 10:43:51;;;;;;;14.02;4.35;;;;;;;25.80;47.76;102070.69;4911379;29;20399;-84
2021/08/14 10:46:50;;;;;;;10.38;4.30;;;;;;;24.65;50.54;102056.31;4928006;29;20083;-85
2021/08/14 10:49:46;;;;;;;12.95;4.95;;;;;;;25.20;49.08;102065.56;4910155;29;20119;-86
2021/08/14 10:52:33;;;;;;;12.75;4.15;;;;;;;25.00;48.74;102060.25;4889001;29;20124;-84
2021/08/14 10:55:00;;;;;;;13.38;4.30;;;;;;;25.55;48.15;102054.13;4889111;29;20084;-84
2021/08/14 10:57:56;;;;;;;12.25;4.57;;;;;;;25.63;47.96;102048.84;4888767;29;20511;-84
2021/08/14 11:00:24;;;;;;;14.75;4.70;;;;;;;25.82;47.77;102060.56;4828842;29;20103;-85
2021/08/14 11:03:03;;;;;;;14.20;5.10;;;;;;;24.50;50.65;102037.88;4812131;29;20045;-86
2021/08/14 11:05:29;;;;;;;14.23;4.47;;;;;;;25.61;47.90;102045.44;4826881;29;20085;-84
2021/08/14 11:07:55;;;;;;;8.90;4.10;;;;;;;24.58;49.63;102045.25;4827050;29;20047;-84
2021/08/14 11:10:34;;;;;;;11.82;4.63;;;;;;;24.39;50.78;102048.81;4810898;29;20236;-84
2021/08/14 11:13:35;;;;;;;12.52;4.25;;;;;;;23.47;52.84;102041.75;4810846;29;20540;-84
2021/08/14 11:16:00;;;;;;;11.55;4.07;;;;;;;24.24;50.65;102043.03;4825238;29;20057;-84
2021/08/14 11:18:55;;;;;;;15.45;4.40;;;;;;;23.87;51.19;102042.69;4811812;29;20042;-85
2021/08/14 11:21:39;;;;;;;9.48;4.05;;;;;;;23.31;52.61;102050.34;4807075;29;20042;-84
2021/08/14 11:24:05;;;;;;;11.25;4.07;;;;;;;23.68;52.50;102048.03;4791960;29;20038;-83
2021/08/14 11:26:32;;;;;;;10.68;3.97;;;;;;;23.53;51.98;102056.56;4797421;29;20149;-84
2021/08/14 11:28:59;;;;;;;12.05;4.40;;;;;;;23.22;52.76;102043.06;4812218;29;20035;-84
2021/08/14 11:31:24;;;;;;;12.82;3.85;;;;;;;23.19;53.05;102063.06;4804458;29;20046;-83